createdAt,value
2023-01-25T00:02:01.250Z,30.90
2023-01-25T00:07:03.796Z,29.67
2023-01-25T00:12:07.757Z,31.20
2023-01-25T00:17:10.269Z,33.97
2023-01-25T00:22:12.717Z,31.52
2023-01-25T00:27:16.545Z,34.03
2023-01-25T00:32:31.788Z,32.17
2023-01-25T00:37:37.601Z,33.92
2023-01-25T00:42:41.727Z,36.55
2023-01-25T00:47:44.197Z,41.33
2023-01-25T00:52:46.607Z,40.92
2023-01-25T00:57:50.411Z,35.17
2023-01-25T01:02:52.976Z,34.55
2023-01-25T01:07:57.053Z,35.58
2023-01-25T01:13:00.918Z,32.90
2023-01-25T01:18:03.439Z,35.95
2023-01-25T01:23:05.902Z,37.25
2023-01-25T01:28:09.700Z,42.08
2023-01-25T01:33:12.136Z,34.35
2023-01-25T01:38:14.607Z,38.30
2023-01-25T01:43:19.268Z,34.67
2023-01-25T01:48:25.395Z,39.03
2023-01-25T01:53:28.882Z,37.28
2023-01-25T01:58:33.378Z,41.45
2023-01-25T02:03:36.365Z,34.42
2023-01-25T02:08:40.924Z,37.40
2023-01-25T02:13:44.866Z,33.63
2023-01-25T02:18:47.450Z,34.67
2023-01-25T02:23:53.703Z,35.50
2023-01-25T02:29:00.090Z,39.22
2023-01-25T02:34:02.677Z,40.88
2023-01-25T02:39:08.337Z,37.83
2023-01-25T02:44:13.838Z,38.60
2023-01-25T02:49:16.887Z,39.70
2023-01-25T02:54:20.705Z,38.92
2023-01-25T02:59:24.515Z,37.08
2023-01-25T03:04:27.546Z,37.78
2023-01-25T03:09:29.970Z,38.03
2023-01-25T03:14:33.750Z,37.60
2023-01-25T03:19:36.155Z,39.05
2023-01-25T03:24:38.673Z,40.28
2023-01-25T03:29:42.679Z,36.58
2023-01-25T03:34:45.104Z,38.65
2023-01-25T03:39:47.524Z,37.90
2023-01-25T03:44:51.369Z,34.45
2023-01-25T03:49:53.807Z,36.70
2023-01-25T03:54:56.257Z,42.20
2023-01-25T03:59:59.992Z,35.13
2023-01-25T04:05:02.457Z,37.88
2023-01-25T04:10:05.057Z,41.05
2023-01-25T04:15:10.209Z,44.97
2023-01-25T04:20:13.180Z,38.03
2023-01-25T04:25:15.620Z,36.93
2023-01-25T04:30:19.441Z,38.50
2023-01-25T04:35:21.926Z,46.78
2023-01-25T04:40:24.370Z,41.60
2023-01-25T04:45:28.132Z,38.42
2023-01-25T04:50:30.834Z,41.42
2023-01-25T04:55:34.043Z,40.33
2023-01-25T05:00:37.802Z,41.17
2023-01-25T05:05:40.199Z,44.47
2023-01-25T05:10:45.647Z,43.53
2023-01-25T05:15:49.391Z,43.35
2023-01-25T05:20:54.841Z,44.13
2023-01-25T05:26:14.998Z,38.92
2023-01-25T05:31:18.814Z,46.70
2023-01-25T05:36:21.380Z,46.88
2023-01-25T05:41:23.813Z,41.72
2023-01-25T05:46:28.357Z,43.25
2023-01-25T05:51:30.801Z,38.92
2023-01-25T05:56:33.271Z,43.20
2023-01-25T06:01:37.036Z,42.13
2023-01-25T06:06:39.490Z,45.45
2023-01-25T06:11:43.924Z,45.75
2023-01-25T06:16:47.721Z,41.42
2023-01-25T06:21:50.999Z,43.70
2023-01-25T06:26:53.431Z,53.08
2023-01-25T06:31:57.208Z,45.20
2023-01-25T06:36:59.725Z,44.45
2023-01-25T06:42:02.129Z,43.63
2023-01-25T06:47:05.965Z,45.55
2023-01-25T06:52:08.399Z,40.70
2023-01-25T06:57:12.142Z,45.28
2023-01-25T07:07:18.227Z,43.30
2023-01-25T07:12:20.682Z,45.83
2023-01-25T07:17:23.139Z,44.35
2023-01-25T07:22:26.956Z,42.72
2023-01-25T07:27:29.754Z,43.65
2023-01-25T07:32:32.224Z,44.50
2023-01-25T07:37:36.052Z,44.78
2023-01-25T07:42:38.583Z,49.03
2023-01-25T07:47:41.243Z,46.30
2023-01-25T07:52:44.983Z,45.90
2023-01-25T07:57:47.754Z,47.45
2023-01-25T08:02:50.842Z,42.30
2023-01-25T08:07:54.837Z,44.47
2023-01-25T08:12:57.314Z,43.70
2023-01-25T08:18:00.498Z,42.42
2023-01-25T08:23:04.305Z,39.60
2023-01-25T08:28:07.901Z,47.95
2023-01-25T08:38:14.004Z,42.42
2023-01-25T08:43:16.651Z,38.92
2023-01-25T08:48:19.073Z,43.27
2023-01-25T08:53:23.012Z,43.13
2023-01-25T08:58:25.448Z,47.15
2023-01-25T09:03:28.284Z,38.17
2023-01-25T09:08:32.556Z,43.57
2023-01-25T09:13:35.074Z,41.83
2023-01-25T09:18:38.468Z,39.38
2023-01-25T09:23:51.125Z,44.22
2023-01-25T09:29:08.140Z,40.22
2023-01-25T09:34:11.524Z,44.83
2023-01-25T09:39:15.399Z,43.45
2023-01-25T09:44:25.003Z,43.80
2023-01-25T09:49:36.044Z,43.45
2023-01-25T09:54:47.053Z,43.15
2023-01-25T09:59:51.361Z,44.38
2023-01-25T10:04:55.224Z,40.22
2023-01-25T10:10:01.765Z,45.35
2023-01-25T10:15:08.227Z,46.38
2023-01-25T10:20:16.595Z,44.50
2023-01-25T10:25:30.256Z,47.58
2023-01-25T10:30:35.445Z,47.38
2023-01-25T10:35:43.736Z,45.63
2023-01-25T10:40:50.632Z,42.13
2023-01-25T10:45:53.137Z,43.88
2023-01-25T10:50:57.317Z,41.47
2023-01-25T10:56:03.135Z,47.78
2023-01-25T11:01:07.828Z,45.42
2023-01-25T11:06:10.439Z,52.25
2023-01-25T11:11:26.211Z,49.85
2023-01-25T11:16:36.724Z,44.22
2023-01-25T11:21:51.828Z,41.17
2023-01-25T11:27:12.295Z,45.70
2023-01-25T11:32:22.559Z,47.92
2023-01-25T11:37:34.879Z,48.38
2023-01-25T11:42:43.418Z,48.33
2023-01-25T11:47:53.768Z,44.95
2023-01-25T11:53:01.338Z,44.10
2023-01-25T11:58:13.859Z,48.97
2023-01-25T12:03:37.481Z,49.28
2023-01-25T12:08:46.130Z,48.42
2023-01-25T12:13:55.191Z,50.05
2023-01-25T12:19:15.657Z,49.35
2023-01-25T12:24:25.439Z,44.80
2023-01-25T12:29:31.658Z,49.35
2023-01-25T12:34:36.661Z,46.40
2023-01-25T12:39:42.125Z,49.15
2023-01-25T12:44:48.601Z,50.17
2023-01-25T12:49:53.629Z,58.88
2023-01-25T12:54:57.671Z,53.67
2023-01-25T13:00:05.255Z,52.42
2023-01-25T13:05:15.160Z,59.15
2023-01-25T13:10:20.880Z,54.60
2023-01-25T13:15:37.691Z,49.42
2023-01-25T13:20:49.197Z,49.13
2023-01-25T13:25:51.773Z,53.72
2023-01-25T13:30:55.839Z,52.92
2023-01-25T13:35:58.300Z,49.33
2023-01-25T13:41:03.672Z,52.22
2023-01-25T13:46:08.271Z,52.08
2023-01-25T13:51:14.115Z,58.70
2023-01-25T13:56:25.955Z,54.85
2023-01-25T14:01:31.524Z,56.60
2023-01-25T14:06:36.149Z,52.38
2023-01-25T14:11:45.099Z,57.55
2023-01-25T14:17:01.585Z,55.72
2023-01-25T14:22:23.120Z,54.47
2023-01-25T14:27:25.693Z,52.10
2023-01-25T14:32:29.526Z,57.75
2023-01-25T14:37:31.982Z,61.42
2023-01-25T14:42:34.512Z,65.00
2023-01-25T14:47:38.515Z,60.88
2023-01-25T14:52:42.072Z,56.47
2023-01-25T14:57:45.987Z,63.05
2023-01-25T15:02:53.718Z,53.88
2023-01-25T15:07:57.302Z,58.45
2023-01-25T15:18:29.829Z,65.32
2023-01-25T15:23:33.639Z,65.55
2023-01-25T15:28:37.303Z,64.50
2023-01-25T15:38:43.718Z,58.92
2023-01-25T15:43:46.269Z,143.63
2023-01-25T15:48:50.044Z,63.05
2023-01-25T15:53:53.878Z,70.10
2023-01-25T15:58:57.718Z,70.18
2023-01-25T16:04:00.875Z,71.03
2023-01-25T16:09:13.032Z,71.50
2023-01-25T16:14:15.426Z,74.45
2023-01-25T16:19:18.501Z,69.38
2023-01-25T16:24:22.272Z,73.15
2023-01-25T16:29:25.051Z,77.80
2023-01-25T16:34:27.453Z,65.47
2023-01-25T16:39:32.353Z,70.65
2023-01-25T16:44:34.813Z,74.43
2023-01-25T16:49:37.234Z,68.68
2023-01-25T16:54:41.030Z,70.95
2023-01-25T16:59:43.489Z,68.75
2023-01-25T17:04:45.896Z,68.63
2023-01-25T17:09:49.698Z,75.53
2023-01-25T17:14:52.375Z,75.57
2023-01-25T17:19:54.791Z,66.73
2023-01-25T17:24:58.835Z,68.55
2023-01-25T17:30:01.251Z,73.53
2023-01-25T17:35:04.660Z,67.50
2023-01-25T17:40:10.134Z,71.10
2023-01-25T17:45:13.123Z,62.22
2023-01-25T17:50:15.825Z,63.77
2023-01-25T17:55:19.627Z,68.57
2023-01-25T18:00:22.453Z,60.42
2023-01-25T18:05:25.323Z,67.30
2023-01-25T18:10:29.108Z,67.63
2023-01-25T18:15:31.608Z,73.10
2023-01-25T18:20:34.141Z,62.13
2023-01-25T18:25:38.084Z,71.50
2023-01-25T18:30:43.333Z,63.90
2023-01-25T18:35:47.852Z,60.70
2023-01-25T18:40:51.664Z,70.80
2023-01-25T18:45:57.432Z,68.55
2023-01-25T18:51:00.325Z,64.40
2023-01-25T18:56:05.148Z,71.73
2023-01-25T19:01:08.806Z,71.90
2023-01-25T19:06:11.881Z,78.20
2023-01-25T19:11:16.339Z,75.38
2023-01-25T19:16:20.503Z,65.35
2023-01-25T19:21:23.994Z,67.95
2023-01-25T19:26:28.118Z,63.28
2023-01-25T19:31:32.407Z,78.10
2023-01-25T19:36:36.021Z,78.53
2023-01-25T19:46:42.780Z,76.75
2023-01-25T19:51:48.888Z,68.63
2023-01-25T19:56:51.319Z,74.32
2023-01-25T20:01:55.240Z,79.53
2023-01-25T20:06:57.727Z,78.88
2023-01-25T20:12:00.639Z,84.78
2023-01-25T20:17:04.427Z,88.63
2023-01-25T20:22:06.968Z,94.88
2023-01-25T20:27:09.419Z,84.45
2023-01-25T20:32:30.546Z,93.03
2023-01-25T20:37:34.194Z,106.50
2023-01-25T20:42:37.217Z,104.40
2023-01-25T20:47:41.032Z,100.70
2023-01-25T20:52:43.432Z,111.75
2023-01-25T20:57:45.843Z,117.22
2023-01-25T21:02:49.713Z,122.43
2023-01-25T21:07:53.276Z,145.23
2023-01-25T21:12:55.747Z,128.15
2023-01-25T21:17:59.514Z,132.57
2023-01-25T21:23:01.889Z,145.82
2023-01-25T21:28:04.438Z,163.40
2023-01-25T21:33:11.423Z,152.00
2023-01-25T21:38:13.914Z,162.32
2023-01-25T21:43:17.965Z,170.60
2023-01-25T21:48:35.656Z,153.75
2023-01-25T21:53:38.133Z,157.05
2023-01-25T21:58:40.553Z,159.32
2023-01-25T22:03:47.636Z,171.18
2023-01-25T22:08:50.123Z,163.15
2023-01-25T22:13:52.533Z,183.63
2023-01-25T22:18:56.315Z,170.30
2023-01-25T22:23:59.066Z,169.82
2023-01-25T22:29:01.549Z,192.67
2023-01-25T22:34:05.346Z,186.18
2023-01-25T22:39:07.750Z,182.63
2023-01-25T22:44:10.810Z,189.75
2023-01-25T22:49:14.572Z,177.05
2023-01-25T22:54:17.003Z,173.07
2023-01-25T22:59:19.483Z,181.57
2023-01-25T23:04:23.322Z,193.05
2023-01-25T23:09:25.752Z,185.25
2023-01-25T23:14:45.951Z,195.30
2023-01-25T23:19:49.706Z,199.63
2023-01-25T23:24:52.160Z,200.25
2023-01-25T23:29:54.605Z,197.20
2023-01-25T23:34:58.398Z,196.38
2023-01-25T23:40:00.823Z,201.50
2023-01-25T23:45:03.220Z,186.35
2023-01-25T23:50:07.969Z,187.00
2023-01-25T23:55:11.051Z,176.23
